Time;durP1;ratioP1;P1;durP2;ratioP2;P2;SDS_P1;SDS_P2;PMS_P1;PMS_P2;Temp;Humidity;BMP_temperature;BMP_pressure;BME280_temperature;BME280_humidity;BME280_pressure;Samples;Min_cycle;Max_cycle;Signal;HPM_P1;HPM_P2
2023/07/19 00:00:13;;;;;;;4.88;1.38;;;16.60;90.20;;;;;;5051653;28;20029;-80
2023/07/19 00:02:38;;;;;;;6.93;1.55;;;16.60;90.60;;;;;;5052024;28;20469;-79
2023/07/19 00:05:04;;;;;;;6.05;1.58;;;16.60;91.10;;;;;;5053965;28;20040;-79
2023/07/19 00:07:30;;;;;;;5.07;1.80;;;16.60;91.40;;;;;;5053928;28;20021;-80
2023/07/19 00:09:56;;;;;;;2.50;1.60;;;16.60;91.50;;;;;;5053169;28;20036;-79
2023/07/19 00:12:21;;;;;;;8.82;1.40;;;16.60;91.70;;;;;;5055420;28;20024;-79
2023/07/19 00:14:47;;;;;;;7.55;1.20;;;16.60;92.00;;;;;;5050675;28;20036;-79
2023/07/19 00:17:13;;;;;;;11.48;1.35;;;16.60;92.60;;;;;;5055641;28;20103;-79
2023/07/19 00:19:39;;;;;;;3.42;1.20;;;16.60;93.20;;;;;;5052603;28;20492;-79
2023/07/19 00:22:05;;;;;;;6.88;1.45;;;16.60;93.70;;;;;;5050822;28;20017;-80
2023/07/19 00:24:30;;;;;;;6.53;1.70;;;16.70;93.80;;;;;;5053134;28;20032;-79
2023/07/19 00:26:56;;;;;;;8.48;1.42;;;16.80;93.90;;;;;;5053709;28;20017;-80
2023/07/19 00:29:22;;;;;;;5.03;1.40;;;16.80;94.10;;;;;;5052829;28;20025;-79
2023/07/19 00:31:48;;;;;;;6.78;1.42;;;16.80;94.10;;;;;;5052509;28;20013;-80
2023/07/19 00:34:13;;;;;;;6.40;1.77;;;16.90;94.10;;;;;;5053418;28;20111;-79
2023/07/19 00:36:39;;;;;;;4.28;1.30;;;16.90;94.10;;;;;;5053065;28;20019;-79
2023/07/19 00:39:05;;;;;;;6.78;1.42;;;16.80;94.50;;;;;;5073580;22;20056;-79
2023/07/19 00:41:30;;;;;;;5.00;1.48;;;16.80;95.00;;;;;;5053655;28;20017;-79
2023/07/19 00:43:56;;;;;;;6.95;2.35;;;16.90;95.10;;;;;;5053093;28;21127;-78
2023/07/19 00:46:22;;;;;;;5.82;1.60;;;16.90;95.40;;;;;;5053135;28;20062;-77
2023/07/19 00:48:48;;;;;;;10.13;1.60;;;16.90;95.60;;;;;;5053380;28;20040;-79
2023/07/19 00:51:14;;;;;;;6.78;1.42;;;16.90;95.50;;;;;;5053080;28;20105;-79
2023/07/19 00:53:40;;;;;;;5.65;1.88;;;16.90;95.80;;;;;;5052690;28;20014;-78
2023/07/19 00:56:07;;;;;;;4.90;1.60;;;17.00;96.00;;;;;;5053128;28;20079;-79
2023/07/19 00:58:34;;;;;;;4.68;1.67;;;17.00;96.40;;;;;;5052668;28;20108;-79
2023/07/19 01:01:01;;;;;;;7.05;1.80;;;17.00;96.50;;;;;;5052681;28;20052;-78
2023/07/19 01:03:27;;;;;;;3.38;2.22;;;17.00;96.50;;;;;;5051213;28;20020;-79
2023/07/19 01:05:52;;;;;;;9.65;2.03;;;17.00;96.60;;;;;;5067275;28;20017;-79
2023/07/19 01:08:18;;;;;;;6.22;2.00;;;17.00;97.00;;;;;;5052188;28;20033;-79
2023/07/19 01:10:45;;;;;;;9.15;2.17;;;17.00;97.70;;;;;;5052712;28;20024;-78
2023/07/19 01:13:12;;;;;;;9.93;2.42;;;17.00;97.80;;;;;;5052538;28;20492;-79
2023/07/19 01:15:40;;;;;;;8.43;2.05;;;17.00;98.20;;;;;;5052506;28;20024;-78
2023/07/19 01:18:06;;;;;;;5.90;2.17;;;17.00;98.30;;;;;;5067830;28;20047;-78
2023/07/19 01:20:31;;;;;;;8.20;2.33;;;17.00;98.60;;;;;;5050705;28;20084;-80
2023/07/19 01:22:57;;;;;;;6.10;2.08;;;17.00;98.70;;;;;;5052145;28;20155;-79
2023/07/19 01:25:24;;;;;;;5.00;2.60;;;17.00;98.90;;;;;;5051975;28;20473;-78
2023/07/19 01:27:49;;;;;;;9.75;1.95;;;16.90;99.00;;;;;;5052198;28;20135;-79
2023/07/19 01:30:15;;;;;;;7.88;2.10;;;17.00;98.90;;;;;;5052148;28;20032;-79
2023/07/19 01:32:41;;;;;;;9.95;2.60;;;17.00;98.90;;;;;;5052377;28;20029;-79
2023/07/19 01:35:07;;;;;;;12.05;2.25;;;17.00;98.90;;;;;;5045613;28;20413;-79
2023/07/19 01:40:11;;;;;;;5.70;2.15;;;17.00;99.00;;;;;;5074524;28;20044;-79
2023/07/19 01:42:38;;;;;;;8.15;2.38;;;17.00;98.70;;;;;;5076825;28;20024;-80
2023/07/19 01:45:04;;;;;;;7.35;2.38;;;17.00;98.70;;;;;;5072259;28;20020;-79
2023/07/19 01:47:30;;;;;;;13.40;3.08;;;17.00;99.10;;;;;;5071766;28;20013;-79
2023/07/19 01:49:55;;;;;;;14.15;3.35;;;17.00;99.70;;;;;;5071893;28;20024;-78
2023/07/19 01:52:21;;;;;;;12.57;2.45;;;17.00;99.90;;;;;;5071595;28;20027;-78
2023/07/19 01:54:47;;;;;;;9.40;2.60;;;16.90;99.90;;;;;;5070805;28;20029;-77
2023/07/19 01:57:13;;;;;;;16.67;3.88;;;16.90;99.90;;;;;;5071517;28;20116;-78
2023/07/19 01:59:38;;;;;;;10.48;2.88;;;16.90;99.90;;;;;;5071110;28;20028;-78
2023/07/19 02:02:04;;;;;;;7.07;2.40;;;16.80;99.90;;;;;;5070817;28;20021;-78
2023/07/19 02:04:30;;;;;;;5.78;2.47;;;16.80;99.90;;;;;;5070834;28;20020;-79
2023/07/19 02:06:56;;;;;;;5.65;2.15;;;16.80;99.90;;;;;;5071853;28;20460;-78
2023/07/19 02:09:22;;;;;;;8.57;2.47;;;16.70;99.90;;;;;;5070744;28;20522;-78
2023/07/19 02:11:48;;;;;;;5.80;2.72;;;16.60;99.90;;;;;;5071102;28;20020;-77
2023/07/19 02:14:14;;;;;;;6.90;3.15;;;16.60;99.90;;;;;;5071645;28;20389;-78
2023/07/19 02:16:39;;;;;;;7.75;2.25;;;16.50;99.90;;;;;;5054276;28;20017;-78
2023/07/19 02:19:06;;;;;;;6.75;2.28;;;16.40;99.90;;;;;;5071253;28;20515;-78
2023/07/19 02:21:32;;;;;;;3.78;2.22;;;16.20;99.90;;;;;;5071134;28;20023;-78
2023/07/19 02:23:58;;;;;;;7.95;2.80;;;16.10;99.90;;;;;;5070679;28;20032;-78
2023/07/19 02:26:27;;;;;;;8.38;2.20;;;15.90;99.90;;;;;;5070962;28;20013;-78
2023/07/19 02:28:52;;;;;;;11.25;2.92;;;15.80;99.90;;;;;;5071402;28;20055;-78
2023/07/19 02:31:18;;;;;;;11.88;3.20;;;15.80;99.90;;;;;;5071236;28;20012;-78
2023/07/19 02:33:44;;;;;;;8.35;4.05;;;15.80;99.90;;;;;;5070165;28;20074;-79
2023/07/19 02:36:11;;;;;;;6.15;2.78;;;15.70;99.90;;;;;;5070648;28;20031;-78
2023/07/19 02:38:37;;;;;;;3.88;2.45;;;15.60;99.90;;;;;;5096939;22;20051;-79
2023/07/19 02:41:02;;;;;;;6.80;2.15;;;15.40;99.90;;;;;;5075253;28;20028;-79
2023/07/19 02:43:28;;;;;;;9.45;2.50;;;15.40;99.90;;;;;;5072701;28;20479;-79
2023/07/19 02:45:55;;;;;;;5.82;2.53;;;15.30;99.90;;;;;;5071480;28;20078;-78
2023/07/19 02:48:23;;;;;;;7.60;2.70;;;15.30;99.90;;;;;;5065948;28;20104;-78
2023/07/19 02:50:49;;;;;;;7.32;2.53;;;15.20;99.90;;;;;;5052074;28;20033;-79
2023/07/19 02:53:16;;;;;;;7.38;2.63;;;15.20;99.90;;;;;;5033434;28;20032;-78
2023/07/19 02:55:46;;;;;;;6.00;2.58;;;15.20;99.90;;;;;;5051669;28;20025;-78
2023/07/19 02:58:13;;;;;;;7.65;2.72;;;15.20;99.90;;;;;;5051760;28;20036;-78
2023/07/19 03:00:42;;;;;;;6.75;2.53;;;15.20;99.90;;;;;;5051878;28;20020;-79
2023/07/19 03:03:10;;;;;;;6.75;2.75;;;15.10;99.90;;;;;;5052007;28;20021;-78
2023/07/19 03:05:40;;;;;;;4.15;2.53;;;15.10;99.90;;;;;;5051540;28;20021;-78
2023/07/19 03:08:06;;;;;;;7.47;2.58;;;15.20;99.90;;;;;;5051162;28;20062;-79
2023/07/19 03:10:32;;;;;;;8.35;2.92;;;15.30;99.90;;;;;;5058690;28;20017;-79
2023/07/19 03:12:57;;;;;;;10.60;3.00;;;15.20;99.90;;;;;;5056696;28;20031;-79
2023/07/19 03:15:23;;;;;;;7.75;3.13;;;15.30;99.90;;;;;;5063911;28;20024;-79
2023/07/19 03:17:49;;;;;;;7.70;2.55;;;15.40;99.90;;;;;;5052267;28;20017;-78
2023/07/19 03:20:14;;;;;;;4.65;2.65;;;15.30;99.90;;;;;;5058021;28;20154;-79
2023/07/19 03:22:40;;;;;;;7.03;2.92;;;15.40;99.90;;;;;;5056357;28;20039;-79
2023/07/19 03:25:06;;;;;;;8.10;3.15;;;15.40;99.90;;;;;;5076746;28;20020;-78
2023/07/19 03:27:32;;;;;;;7.95;3.25;;;15.40;99.90;;;;;;5053972;28;20032;-78
2023/07/19 03:29:57;;;;;;;8.38;3.30;;;15.40;99.90;;;;;;5051086;28;20025;-78
2023/07/19 03:32:23;;;;;;;9.30;2.90;;;15.50;99.90;;;;;;5051381;28;20100;-77
2023/07/19 03:34:49;;;;;;;5.80;2.95;;;15.50;99.90;;;;;;5051666;28;20059;-77
2023/07/19 03:37:14;;;;;;;8.52;2.55;;;15.50;99.90;;;;;;5051742;28;20029;-79
2023/07/19 03:39:40;;;;;;;5.30;2.90;;;15.50;99.90;;;;;;5092361;22;20476;-78
2023/07/19 03:42:07;;;;;;;8.73;3.08;;;15.60;99.90;;;;;;5090386;28;20440;-79
2023/07/19 03:44:32;;;;;;;9.38;3.20;;;15.60;99.90;;;;;;5090309;28;20012;-78
2023/07/19 03:46:58;;;;;;;5.93;3.17;;;15.60;99.90;;;;;;5090772;28;20585;-78
2023/07/19 03:49:24;;;;;;;6.25;2.88;;;15.70;99.90;;;;;;5079758;28;20024;-79
2023/07/19 03:51:49;;;;;;;12.55;2.75;;;15.60;99.90;;;;;;5071070;28;20027;-79
2023/07/19 03:54:15;;;;;;;8.98;3.58;;;15.70;99.90;;;;;;5070308;28;20024;-78
2023/07/19 03:56:41;;;;;;;12.10;2.90;;;15.70;99.90;;;;;;5070222;28;20098;-78
2023/07/19 03:59:06;;;;;;;7.60;3.45;;;15.70;99.90;;;;;;5066265;28;20119;-79
2023/07/19 04:01:33;;;;;;;7.63;3.40;;;15.70;99.90;;;;;;5070553;28;20078;-79
2023/07/19 04:03:59;;;;;;;10.80;3.45;;;15.70;99.90;;;;;;5071379;28;20021;-79
2023/07/19 04:06:24;;;;;;;8.20;3.17;;;15.70;99.90;;;;;;5074692;28;20423;-79
2023/07/19 04:08:50;;;;;;;8.65;3.53;;;15.70;99.90;;;;;;5074169;28;20385;-78
2023/07/19 04:11:16;;;;;;;6.95;3.28;;;15.70;99.90;;;;;;5074449;28;20016;-78
2023/07/19 04:13:42;;;;;;;8.70;3.80;;;15.70;99.90;;;;;;5073096;28;20025;-79
2023/07/19 04:16:07;;;;;;;11.90;4.25;;;15.80;99.90;;;;;;5074329;28;20013;-78
2023/07/19 04:18:33;;;;;;;9.65;3.53;;;15.80;99.90;;;;;;5074182;28;20028;-79
2023/07/19 04:21:00;;;;;;;5.25;3.60;;;15.90;99.90;;;;;;5074020;28;20027;-79
2023/07/19 04:23:25;;;;;;;7.85;3.63;;;15.90;99.90;;;;;;5073835;28;20036;-79
2023/07/19 04:25:51;;;;;;;7.43;3.00;;;15.90;99.90;;;;;;5073973;28;20464;-78
2023/07/19 04:28:17;;;;;;;8.77;4.40;;;15.90;99.90;;;;;;5069924;28;20519;-78
2023/07/19 04:30:44;;;;;;;12.13;3.50;;;15.90;99.90;;;;;;5074308;28;20052;-79
2023/07/19 04:33:10;;;;;;;9.00;3.65;;;15.90;99.90;;;;;;5073805;28;20031;-79
2023/07/19 04:35:36;;;;;;;10.88;4.05;;;15.80;99.90;;;;;;5073973;28;20016;-79
2023/07/19 04:38:03;;;;;;;8.82;3.80;;;15.90;99.90;;;;;;5094967;22;20025;-78
2023/07/19 04:40:30;;;;;;;9.35;3.83;;;15.90;99.90;;;;;;5042206;28;20077;-78
2023/07/19 04:42:55;;;;;;;10.38;3.90;;;15.90;99.90;;;;;;5056344;28;20383;-78
2023/07/19 04:45:21;;;;;;;10.82;3.58;;;15.90;99.90;;;;;;5053012;28;20505;-78
2023/07/19 04:47:46;;;;;;;9.98;3.50;;;15.90;99.90;;;;;;5052586;28;20108;-78
2023/07/19 04:50:12;;;;;;;7.90;3.25;;;15.90;99.90;;;;;;5052546;28;20052;-79
2023/07/19 04:52:38;;;;;;;10.52;3.72;;;16.00;99.90;;;;;;5052778;28;20377;-78
2023/07/19 04:55:05;;;;;;;8.70;3.33;;;16.00;99.90;;;;;;5052355;28;20017;-79
2023/07/19 04:57:31;;;;;;;7.78;3.58;;;16.00;99.90;;;;;;5052764;28;20021;-78
2023/07/19 04:59:57;;;;;;;8.77;2.95;;;16.10;99.90;;;;;;5053022;28;20029;-79
2023/07/19 05:02:23;;;;;;;9.93;3.10;;;16.10;99.90;;;;;;5052565;28;20066;-79
2023/07/19 05:04:48;;;;;;;8.82;3.70;;;16.10;99.90;;;;;;5052773;28;20056;-79
2023/07/19 05:07:14;;;;;;;13.07;3.80;;;16.10;99.90;;;;;;5052698;28;20025;-78
2023/07/19 05:09:42;;;;;;;8.35;3.17;;;16.10;99.90;;;;;;5056393;28;20021;-78
2023/07/19 05:12:09;;;;;;;9.82;3.58;;;16.10;99.90;;;;;;5052242;28;20025;-78
2023/07/19 05:14:35;;;;;;;7.78;3.35;;;16.10;99.90;;;;;;5052302;28;20032;-78
2023/07/19 05:17:01;;;;;;;10.50;3.42;;;16.20;99.90;;;;;;5044403;28;20393;-78
2023/07/19 05:19:27;;;;;;;9.70;3.28;;;16.20;99.90;;;;;;5051868;28;20033;-79
2023/07/19 05:21:52;;;;;;;8.13;3.47;;;16.20;99.90;;;;;;5052266;28;20377;-79
2023/07/19 05:24:18;;;;;;;5.43;2.58;;;16.20;99.90;;;;;;5051873;28;20021;-79
2023/07/19 05:26:44;;;;;;;10.70;3.95;;;16.30;99.90;;;;;;5050861;28;20029;-79
2023/07/19 05:29:10;;;;;;;8.57;3.17;;;16.30;99.90;;;;;;5050514;28;20489;-78
2023/07/19 05:31:36;;;;;;;6.10;3.05;;;16.30;99.90;;;;;;5052097;28;20029;-79
2023/07/19 05:34:02;;;;;;;7.30;3.20;;;16.30;99.90;;;;;;5052027;28;20029;-78
2023/07/19 05:36:28;;;;;;;6.03;2.90;;;16.40;99.90;;;;;;5052342;28;20063;-79
2023/07/19 05:38:54;;;;;;;10.45;4.03;;;16.40;99.90;;;;;;5071113;22;20484;-78
2023/07/19 05:41:20;;;;;;;7.63;3.20;;;16.40;99.90;;;;;;5053149;28;20465;-79
2023/07/19 05:43:46;;;;;;;10.52;4.10;;;16.60;99.90;;;;;;5051954;28;20055;-78
2023/07/19 05:46:12;;;;;;;6.53;2.88;;;16.60;99.90;;;;;;5052029;28;20028;-79
2023/07/19 05:48:37;;;;;;;5.50;2.97;;;16.70;99.90;;;;;;5051987;28;20137;-79
2023/07/19 05:51:06;;;;;;;12.27;3.58;;;16.80;99.90;;;;;;5051600;28;20113;-79
2023/07/19 05:53:32;;;;;;;15.65;3.60;;;16.80;99.90;;;;;;5051847;28;20021;-79
2023/07/19 05:55:58;;;;;;;12.38;3.08;;;16.90;99.90;;;;;;5051033;28;20121;-79
2023/07/19 05:58:24;;;;;;;9.48;3.38;;;16.90;99.90;;;;;;5051351;28;20386;-79
2023/07/19 06:00:50;;;;;;;10.02;3.83;;;17.00;99.90;;;;;;5051617;28;20029;-79
2023/07/19 06:03:16;;;;;;;7.13;3.13;;;17.10;99.90;;;;;;5051212;28;20017;-79
2023/07/19 06:05:43;;;;;;;9.70;3.75;;;17.20;99.80;;;;;;5051053;28;20048;-79
2023/07/19 06:08:10;;;;;;;12.50;3.60;;;17.20;99.00;;;;;;5060187;28;20032;-78
2023/07/19 06:10:36;;;;;;;7.82;3.22;;;17.30;98.80;;;;;;5056478;28;20044;-79
2023/07/19 06:13:03;;;;;;;11.48;3.45;;;17.30;98.90;;;;;;5051383;28;20063;-79
2023/07/19 06:15:32;;;;;;;13.65;3.88;;;17.40;98.60;;;;;;5049957;28;20453;-79
2023/07/19 06:17:58;;;;;;;8.25;3.70;;;17.50;98.00;;;;;;5051714;28;20025;-78
2023/07/19 06:20:24;;;;;;;8.73;3.25;;;17.60;98.20;;;;;;5051030;28;20040;-78
2023/07/19 06:22:50;;;;;;;7.70;4.30;;;17.80;98.00;;;;;;5051655;28;20424;-79
2023/07/19 06:25:16;;;;;;;6.88;3.22;;;17.90;98.30;;;;;;5043991;28;20472;-78
2023/07/19 06:27:42;;;;;;;9.10;3.35;;;18.00;97.80;;;;;;5051066;28;20056;-79
2023/07/19 06:30:09;;;;;;;11.27;3.45;;;18.10;96.70;;;;;;5050884;28;20052;-79
2023/07/19 06:32:36;;;;;;;9.70;3.40;;;18.10;96.50;;;;;;5051248;28;20013;-79
2023/07/19 06:35:07;;;;;;;6.35;3.22;;;18.20;96.10;;;;;;5049302;28;20047;-79
2023/07/19 06:37:33;;;;;;;6.45;2.95;;;18.20;96.10;;;;;;5050764;28;20032;-79
2023/07/19 06:40:02;;;;;;;11.00;4.07;;;18.30;95.70;;;;;;5066032;22;20070;-79
2023/07/19 06:42:28;;;;;;;8.55;3.08;;;18.30;95.00;;;;;;5050075;28;20013;-79
2023/07/19 06:44:54;;;;;;;9.32;3.47;;;18.40;95.00;;;;;;5033084;28;20503;-79
2023/07/19 06:47:19;;;;;;;7.47;3.00;;;18.40;94.10;;;;;;5033588;28;20013;-79
2023/07/19 06:49:45;;;;;;;7.75;3.20;;;18.50;94.00;;;;;;5034839;28;20025;-79
2023/07/19 06:52:11;;;;;;;8.75;2.83;;;18.50;94.00;;;;;;5030946;28;20021;-79
2023/07/19 06:54:36;;;;;;;7.78;3.65;;;18.70;93.50;;;;;;5013727;28;20052;-78
2023/07/19 06:57:02;;;;;;;6.45;2.50;;;18.80;93.30;;;;;;5028985;28;20461;-79
2023/07/19 06:59:28;;;;;;;4.97;2.60;;;18.90;93.20;;;;;;5012905;28;20549;-79
2023/07/19 07:01:54;;;;;;;8.07;2.72;;;19.10;93.60;;;;;;5030461;28;20025;-79
2023/07/19 07:04:20;;;;;;;5.95;2.60;;;19.20;91.80;;;;;;5030406;28;20413;-80
2023/07/19 07:06:45;;;;;;;4.22;2.35;;;19.10;92.20;;;;;;5030420;28;20022;-80
2023/07/19 07:09:14;;;;;;;8.20;3.17;;;19.10;92.00;;;;;;5031312;28;20508;-80
2023/07/19 07:11:39;;;;;;;7.72;2.55;;;19.20;91.90;;;;;;5035546;28;20454;-79
2023/07/19 07:14:05;;;;;;;6.72;2.78;;;19.30;91.90;;;;;;5030638;28;20040;-79
2023/07/19 07:16:30;;;;;;;8.93;2.70;;;19.50;92.40;;;;;;5020443;28;20025;-79
2023/07/19 07:18:56;;;;;;;10.52;3.33;;;19.60;91.20;;;;;;5030527;28;20021;-78
2023/07/19 07:21:22;;;;;;;7.95;3.03;;;19.80;91.40;;;;;;5030556;28;21092;-79
2023/07/19 07:23:48;;;;;;;4.68;2.22;;;19.90;91.10;;;;;;5030576;28;20029;-79
2023/07/19 07:26:14;;;;;;;11.07;2.92;;;20.00;90.40;;;;;;5030285;28;20043;-80
2023/07/19 07:28:40;;;;;;;6.30;2.20;;;20.00;90.30;;;;;;5030084;28;20033;-81
2023/07/19 07:31:08;;;;;;;6.40;2.42;;;20.00;90.20;;;;;;5012547;28;20021;-79
2023/07/19 07:33:34;;;;;;;8.82;2.83;;;20.00;90.30;;;;;;5012792;28;20032;-79
2023/07/19 07:36:00;;;;;;;7.93;2.53;;;20.00;89.70;;;;;;5030352;28;20020;-79
2023/07/19 07:38:26;;;;;;;6.38;2.22;;;20.10;88.30;;;;;;5056811;22;20016;-80
2023/07/19 07:40:57;;;;;;;7.18;2.17;;;20.20;89.30;;;;;;5060058;28;20040;-80
2023/07/19 07:43:23;;;;;;;8.57;3.03;;;20.20;88.50;;;;;;5053713;28;20013;-80
2023/07/19 07:45:48;;;;;;;5.45;2.45;;;20.30;88.40;;;;;;5059334;28;20033;-82
2023/07/19 07:48:14;;;;;;;7.28;2.30;;;20.30;88.20;;;;;;5055076;28;20092;-81
2023/07/19 07:50:39;;;;;;;4.15;2.05;;;20.30;87.10;;;;;;5070422;28;20027;-85
2023/07/19 07:53:05;;;;;;;5.07;2.75;;;20.40;86.80;;;;;;5075596;28;20024;-79
2023/07/19 07:55:32;;;;;;;5.70;2.60;;;20.40;86.90;;;;;;5073182;28;20380;-79
2023/07/19 07:57:59;;;;;;;7.70;2.38;;;20.30;87.10;;;;;;5077546;28;20020;-81
2023/07/19 08:00:24;;;;;;;4.20;2.53;;;20.20;86.40;;;;;;5078378;28;20370;-81
2023/07/19 08:02:50;;;;;;;5.72;2.63;;;20.10;87.50;;;;;;5074108;28;20024;-81
2023/07/19 08:05:16;;;;;;;3.72;2.10;;;20.00;89.40;;;;;;5071535;28;20028;-80
2023/07/19 08:07:41;;;;;;;3.13;2.20;;;20.00;90.50;;;;;;5055446;28;20020;-80
2023/07/19 08:10:07;;;;;;;4.68;2.63;;;19.80;91.00;;;;;;5072614;28;20063;-81
2023/07/19 08:12:33;;;;;;;6.53;2.70;;;19.80;90.50;;;;;;5051806;28;20561;-81
2023/07/19 08:14:58;;;;;;;6.53;2.42;;;19.70;90.20;;;;;;5056263;28;20063;-79
2023/07/19 08:17:24;;;;;;;5.68;2.13;;;19.90;89.60;;;;;;5073852;28;20078;-80
2023/07/19 08:19:50;;;;;;;8.05;2.75;;;20.20;88.40;;;;;;5072784;28;20041;-80
2023/07/19 08:22:26;;;;;;;5.82;2.30;;;20.50;87.30;;;;;;5073099;28;20492;-79
2023/07/19 08:24:53;;;;;;;3.60;1.90;;;20.90;85.10;;;;;;5073153;28;20031;-80
2023/07/19 08:27:18;;;;;;;6.40;2.20;;;21.00;81.60;;;;;;5072596;28;20021;-80
2023/07/19 08:29:44;;;;;;;4.30;1.95;;;20.90;81.40;;;;;;5055787;28;20070;-81
2023/07/19 08:32:10;;;;;;;4.53;2.20;;;20.70;81.70;;;;;;5063678;28;20397;-81
2023/07/19 08:34:35;;;;;;;5.20;2.38;;;20.90;82.30;;;;;;5073229;28;20032;-80
2023/07/19 08:37:01;;;;;;;3.47;1.80;;;21.20;80.10;;;;;;5068884;28;20074;-81
2023/07/19 08:39:29;;;;;;;4.40;1.80;;;21.50;76.30;;;;;;5078129;22;20049;-80
2023/07/19 08:41:55;;;;;;;3.47;1.90;;;21.60;76.60;;;;;;5039372;28;20716;-82
2023/07/19 08:44:23;;;;;;;3.47;1.92;;;21.60;79.20;;;;;;5033832;28;20022;-81
2023/07/19 08:46:49;;;;;;;3.97;1.88;;;21.50;77.70;;;;;;5032309;28;20057;-81
2023/07/19 08:49:18;;;;;;;8.60;1.65;;;21.50;77.40;;;;;;5048900;28;20112;-81
2023/07/19 08:51:45;;;;;;;3.95;2.25;;;21.70;76.90;;;;;;5032356;28;20032;-84
2023/07/19 08:54:11;;;;;;;4.55;1.85;;;22.30;76.10;;;;;;5048750;28;20474;-81
2023/07/19 08:56:38;;;;;;;3.40;1.60;;;23.00;72.70;;;;;;5031729;28;20026;-86
2023/07/19 08:59:05;;;;;;;2.22;1.60;;;23.30;71.20;;;;;;5033487;28;20071;-82
2023/07/19 09:01:32;;;;;;;4.20;1.67;;;23.60;71.00;;;;;;5032349;28;20057;-81
2023/07/19 09:03:57;;;;;;;5.38;1.50;;;23.50;70.10;;;;;;5033354;28;20025;-81
2023/07/19 09:06:25;;;;;;;3.13;1.65;;;23.50;69.90;;;;;;5033355;28;20356;-81
2023/07/19 09:08:52;;;;;;;3.35;1.73;;;23.40;69.10;;;;;;5033222;28;20028;-81
2023/07/19 09:11:24;;;;;;;2.50;1.50;;;23.30;68.30;;;;;;5032951;28;20477;-83
2023/07/19 09:13:58;;;;;;;2.70;1.40;;;23.00;68.60;;;;;;5033208;28;20370;-83
2023/07/19 09:16:32;;;;;;;3.80;1.17;;;22.70;70.90;;;;;;5033198;28;20024;-83
2023/07/19 09:18:59;;;;;;;3.90;1.60;;;22.30;69.40;;;;;;5032861;28;20044;-82
2023/07/19 09:21:45;;;;;;;2.35;1.70;;;22.10;73.10;;;;;;5046059;28;20017;-80
2023/07/19 09:24:11;;;;;;;7.32;1.20;;;21.90;72.60;;;;;;5048584;28;20486;-80
2023/07/19 09:27:03;;;;;;;4.07;1.45;;;21.80;74.40;;;;;;5032456;28;20040;-81
2023/07/19 09:29:30;;;;;;;5.20;1.67;;;21.60;75.70;;;;;;5033991;28;20030;-82
2023/07/19 09:31:59;;;;;;;4.30;1.83;;;21.60;77.10;;;;;;5053577;28;20505;-82
2023/07/19 09:34:27;;;;;;;3.17;1.80;;;21.80;76.70;;;;;;5026184;28;20025;-79
2023/07/19 09:36:53;;;;;;;4.55;1.95;;;21.90;76.70;;;;;;5032935;28;20022;-79
2023/07/19 09:39:22;;;;;;;3.28;1.60;;;21.80;76.80;;;;;;5063643;22;20042;-78
2023/07/19 09:41:48;;;;;;;4.57;1.70;;;21.80;75.30;;;;;;5065736;28;20032;-79
2023/07/19 09:44:18;;;;;;;3.75;1.80;;;21.80;75.50;;;;;;5070385;28;20024;-80
2023/07/19 09:46:45;;;;;;;2.22;1.52;;;21.70;75.30;;;;;;5071441;28;20140;-81
2023/07/19 09:49:12;;;;;;;4.50;1.80;;;21.90;73.80;;;;;;5056929;28;20016;-79
2023/07/19 09:51:42;;;;;;;4.20;2.00;;;22.40;72.10;;;;;;5044409;28;20017;-79
2023/07/19 09:54:15;;;;;;;3.13;2.10;;;22.70;70.30;;;;;;5070724;28;20056;-78
2023/07/19 09:56:41;;;;;;;2.60;1.70;;;23.10;71.20;;;;;;5071313;28;20028;-80
2023/07/19 09:59:17;;;;;;;2.35;1.70;;;23.90;70.20;;;;;;5071109;28;20036;-81
2023/07/19 10:01:43;;;;;;;2.33;1.70;;;24.30;64.70;;;;;;5063951;28;20540;-80
2023/07/19 10:04:25;;;;;;;3.15;1.75;;;24.40;64.10;;;;;;5071334;28;20128;-81
2023/07/19 10:07:17;;;;;;;3.45;1.80;;;24.50;63.80;;;;;;5053821;28;20028;-80
2023/07/19 10:09:46;;;;;;;3.97;1.55;;;24.50;63.60;;;;;;5070875;28;20464;-80
2023/07/19 10:12:17;;;;;;;3.63;1.70;;;24.40;64.30;;;;;;5071554;28;20020;-81
2023/07/19 10:15:02;;;;;;;;;;;24.20;64.30;;;;;;5071592;28;20032;-81
2023/07/19 10:17:32;;;;;;;2.97;1.77;;;24.10;66.10;;;;;;5075332;28;20005;-80
2023/07/19 10:20:15;;;;;;;4.22;2.00;;;24.20;65.10;;;;;;5070901;28;20048;-80
2023/07/19 10:22:53;;;;;;;3.38;1.80;;;24.30;64.20;;;;;;5064384;28;20021;-83
2023/07/19 10:25:45;;;;;;;4.63;2.25;;;24.10;63.60;;;;;;5070515;28;20473;-81
2023/07/19 10:28:13;;;;;;;2.55;1.70;;;24.50;64.20;;;;;;5068411;28;20032;-79
2023/07/19 10:31:02;;;;;;;3.33;1.50;;;25.70;62.70;;;;;;5053409;28;20024;-79
2023/07/19 10:33:30;;;;;;;3.30;1.33;;;27.40;57.20;;;;;;5069676;28;20590;-82
2023/07/19 10:36:03;;;;;;;6.47;1.92;;;28.70;51.00;;;;;;5070990;28;20115;-79
2023/07/19 10:38:30;;;;;;;3.63;1.88;;;28.80;51.20;;;;;;5086208;22;20004;-88
2023/07/19 10:40:59;;;;;;;2.70;1.50;;;29.50;50.20;;;;;;5067137;28;20072;-85
2023/07/19 10:43:29;;;;;;;2.28;1.50;;;30.40;47.00;;;;;;5058617;28;20435;-88
2023/07/19 10:45:55;;;;;;;3.78;1.58;;;30.20;45.20;;;;;;5049001;28;20082;-87
2023/07/19 10:48:26;;;;;;;2.20;1.38;;;30.30;46.90;;;;;;5057439;28;20021;-85
2023/07/19 10:51:00;;;;;;;3.78;1.75;;;29.40;47.30;;;;;;5057678;28;20044;-88
2023/07/19 10:53:26;;;;;;;3.33;1.70;;;28.50;49.80;;;;;;5051901;28;20032;-86
2023/07/19 10:55:56;;;;;;;4.53;1.88;;;28.00;50.30;;;;;;5050760;28;20504;-86
2023/07/19 10:58:24;;;;;;;5.20;2.20;;;26.90;53.90;;;;;;5055444;28;20027;-86
2023/07/19 11:00:51;;;;;;;6.93;1.85;;;26.30;57.20;;;;;;5051044;28;20125;-86
2023/07/19 11:03:17;;;;;;;13.77;2.75;;;26.00;59.20;;;;;;5057107;28;20017;-85
2023/07/19 11:05:52;;;;;;;7.20;2.15;;;26.40;60.20;;;;;;5051457;28;20025;-87
2023/07/19 11:08:21;;;;;;;6.22;2.30;;;26.30;59.70;;;;;;5051146;28;20025;-86
2023/07/19 11:10:50;;;;;;;4.65;2.25;;;26.60;56.90;;;;;;5051454;28;20481;-86
2023/07/19 11:13:17;;;;;;;6.25;2.35;;;27.40;59.00;;;;;;5052547;28;20109;-85
2023/07/19 11:15:48;;;;;;;4.93;1.85;;;28.30;55.90;;;;;;5054256;28;20025;-88
2023/07/19 11:18:27;;;;;;;6.53;2.22;;;29.10;54.00;;;;;;5057878;28;20187;-87
2023/07/19 11:20:59;;;;;;;5.93;2.08;;;29.80;48.30;;;;;;5050370;28;20086;-86
2023/07/19 11:23:29;;;;;;;3.13;1.83;;;30.40;47.20;;;;;;5058465;28;20521;-85
2023/07/19 11:26:07;;;;;;;5.20;1.98;;;30.90;47.60;;;;;;5051812;28;20028;-86
2023/07/19 11:28:50;;;;;;;6.18;1.92;;;31.40;46.40;;;;;;5059073;28;20021;-90
2023/07/19 11:31:39;;;;;;;4.82;1.80;;;32.10;44.70;;;;;;5057033;28;20032;-86
2023/07/19 11:34:14;;;;;;;7.68;1.98;;;33.00;41.30;;;;;;5050020;28;20028;-82
2023/07/19 11:36:45;;;;;;;4.18;1.50;;;32.70;41.80;;;;;;5050848;28;20492;-84
2023/07/19 11:39:17;;;;;;;;;;;32.60;41.60;;;;;;5068529;22;20315;-79
2023/07/19 11:41:44;;;;;;;3.00;1.75;;;32.90;41.40;;;;;;5029422;28;19905;-81
2023/07/19 11:44:22;;;;;;;4.97;1.60;;;32.50;40.70;;;;;;5029769;28;20033;-80
2023/07/19 11:46:48;;;;;;;3.83;1.63;;;32.50;40.50;;;;;;5045322;28;20373;-79
2023/07/19 11:49:15;;;;;;;3.95;1.73;;;32.50;42.00;;;;;;5031126;28;20428;-81
2023/07/19 11:51:41;;;;;;;4.28;1.70;;;32.40;40.90;;;;;;5031152;28;20473;-80
2023/07/19 11:54:06;;;;;;;3.15;1.70;;;32.70;42.50;;;;;;5031021;28;20117;-81
2023/07/19 11:56:33;;;;;;;7.50;1.85;;;32.90;43.10;;;;;;5029361;28;20476;-79
2023/07/19 11:58:59;;;;;;;2.63;1.40;;;33.00;42.30;;;;;;5030550;28;20029;-79
2023/07/19 12:01:28;;;;;;;3.63;1.70;;;33.00;41.90;;;;;;5034114;28;20420;-80
2023/07/19 12:03:59;;;;;;;4.47;1.60;;;31.30;42.40;;;;;;5029178;28;20022;-79
2023/07/19 12:06:25;;;;;;;4.90;1.65;;;30.10;45.60;;;;;;5022895;28;20134;-82
2023/07/19 12:08:51;;;;;;;4.95;2.17;;;29.30;47.60;;;;;;5030749;28;20565;-81
2023/07/19 12:11:17;;;;;;;3.72;1.63;;;30.10;48.80;;;;;;5030563;28;20496;-81
2023/07/19 12:13:42;;;;;;;4.70;1.65;;;30.60;46.10;;;;;;5030717;28;20025;-81
2023/07/19 12:16:08;;;;;;;5.40;2.08;;;30.60;45.30;;;;;;5030956;28;20029;-80
2023/07/19 12:18:34;;;;;;;4.50;1.77;;;30.80;46.90;;;;;;5028955;28;20013;-82
2023/07/19 12:21:00;;;;;;;4.63;2.05;;;30.90;44.80;;;;;;5030456;28;20083;-80
2023/07/19 12:23:26;;;;;;;4.88;1.77;;;30.30;45.80;;;;;;5031026;28;20534;-82
2023/07/19 12:25:51;;;;;;;6.32;1.92;;;30.90;46.70;;;;;;5032491;28;20112;-83
2023/07/19 12:28:22;;;;;;;5.25;1.90;;;31.90;45.90;;;;;;5033943;28;20029;-81
2023/07/19 12:30:48;;;;;;;5.22;1.75;;;32.00;44.80;;;;;;5034587;28;20021;-82
2023/07/19 12:33:14;;;;;;;6.47;2.10;;;30.80;44.80;;;;;;5036653;28;20504;-81
2023/07/19 12:35:40;;;;;;;5.13;2.20;;;29.90;47.20;;;;;;5034128;28;20101;-81
2023/07/19 12:38:06;;;;;;;3.92;1.58;;;29.00;47.20;;;;;;5033479;28;20101;-81
2023/07/19 12:40:33;;;;;;;6.97;2.05;;;27.80;50.20;;;;;;5095110;22;20123;-82
2023/07/19 12:42:59;;;;;;;5.38;2.05;;;26.70;52.60;;;;;;5055760;28;20505;-82
2023/07/19 12:45:25;;;;;;;5.68;2.20;;;25.70;56.70;;;;;;5072901;28;20069;-81
2023/07/19 12:47:50;;;;;;;6.45;2.03;;;24.90;59.30;;;;;;5055360;28;20020;-80